sensor_id;sensor_type;location;lat;lon;timestamp;P1;durP1;ratioP1;P2;durP2;ratioP2
21624;SDS011;10974;51.034;3.744;2022-08-25T00:01:28;2.10;;;1.93;;
21624;SDS011;10974;51.034;3.744;2022-08-25T00:03:56;1.77;;;1.50;;
21624;SDS011;10974;51.034;3.744;2022-08-25T00:06:23;1.70;;;1.60;;
21624;SDS011;10974;51.034;3.744;2022-08-25T00:08:48;1.80;;;1.70;;
21624;SDS011;10974;51.034;3.744;2022-08-25T00:11:16;1.63;;;1.53;;
21624;SDS011;10974;51.034;3.744;2022-08-25T00:13:45;2.27;;;2.10;;
21624;SDS011;10974;51.034;3.744;2022-08-25T00:16:13;1.70;;;1.60;;
21624;SDS011;10974;51.034;3.744;2022-08-25T00:18:41;1.80;;;1.70;;
21624;SDS011;10974;51.034;3.744;2022-08-25T00:21:09;1.80;;;1.70;;
21624;SDS011;10974;51.034;3.744;2022-08-25T00:23:36;1.67;;;1.57;;
21624;SDS011;10974;51.034;3.744;2022-08-25T00:26:02;1.77;;;1.67;;
21624;SDS011;10974;51.034;3.744;2022-08-25T00:28:27;2.13;;;2.03;;
21624;SDS011;10974;51.034;3.744;2022-08-25T00:30:54;1.97;;;1.60;;
21624;SDS011;10974;51.034;3.744;2022-08-25T00:33:20;2.23;;;1.57;;
21624;SDS011;10974;51.034;3.744;2022-08-25T00:35:46;1.90;;;1.80;;
21624;SDS011;10974;51.034;3.744;2022-08-25T00:38:11;1.90;;;1.80;;
21624;SDS011;10974;51.034;3.744;2022-08-25T00:40:38;3.10;;;1.90;;
21624;SDS011;10974;51.034;3.744;2022-08-25T00:43:05;1.93;;;1.83;;
21624;SDS011;10974;51.034;3.744;2022-08-25T00:45:32;1.87;;;1.77;;
21624;SDS011;10974;51.034;3.744;2022-08-25T00:47:58;2.47;;;2.17;;
21624;SDS011;10974;51.034;3.744;2022-08-25T00:50:25;2.00;;;1.90;;
21624;SDS011;10974;51.034;3.744;2022-08-25T00:52:53;1.80;;;1.70;;
21624;SDS011;10974;51.034;3.744;2022-08-25T00:55:24;2.00;;;1.80;;
21624;SDS011;10974;51.034;3.744;2022-08-25T00:58:02;5.10;;;4.60;;
21624;SDS011;10974;51.034;3.744;2022-08-25T01:00:36;6.60;;;4.20;;
21624;SDS011;10974;51.034;3.744;2022-08-25T01:03:05;5.63;;;5.03;;
21624;SDS011;10974;51.034;3.744;2022-08-25T01:05:31;7.60;;;5.00;;
21624;SDS011;10974;51.034;3.744;2022-08-25T01:07:58;4.93;;;4.53;;
21624;SDS011;10974;51.034;3.744;2022-08-25T01:10:27;6.43;;;5.00;;
21624;SDS011;10974;51.034;3.744;2022-08-25T01:12:54;5.23;;;4.83;;
21624;SDS011;10974;51.034;3.744;2022-08-25T01:15:25;6.30;;;5.20;;
21624;SDS011;10974;51.034;3.744;2022-08-25T01:17:53;5.50;;;4.90;;
21624;SDS011;10974;51.034;3.744;2022-08-25T01:20:21;8.50;;;6.03;;
21624;SDS011;10974;51.034;3.744;2022-08-25T01:22:50;6.27;;;4.90;;
21624;SDS011;10974;51.034;3.744;2022-08-25T01:28:01;5.80;;;5.20;;
21624;SDS011;10974;51.034;3.744;2022-08-25T01:30:28;5.80;;;5.20;;
21624;SDS011;10974;51.034;3.744;2022-08-25T01:32:54;8.87;;;5.63;;
21624;SDS011;10974;51.034;3.744;2022-08-25T01:35:19;8.10;;;5.87;;
21624;SDS011;10974;51.034;3.744;2022-08-25T01:37:45;5.67;;;5.17;;
21624;SDS011;10974;51.034;3.744;2022-08-25T01:40:12;8.60;;;6.37;;
21624;SDS011;10974;51.034;3.744;2022-08-25T01:42:46;7.87;;;6.10;;
21624;SDS011;10974;51.034;3.744;2022-08-25T01:45:12;9.30;;;5.00;;
21624;SDS011;10974;51.034;3.744;2022-08-25T01:47:38;9.07;;;5.80;;
21624;SDS011;10974;51.034;3.744;2022-08-25T01:50:04;5.90;;;5.17;;
21624;SDS011;10974;51.034;3.744;2022-08-25T01:52:44;7.53;;;6.27;;
21624;SDS011;10974;51.034;3.744;2022-08-25T01:55:10;6.97;;;6.03;;
21624;SDS011;10974;51.034;3.744;2022-08-25T01:57:36;6.30;;;5.70;;
21624;SDS011;10974;51.034;3.744;2022-08-25T02:00:04;7.00;;;6.27;;
21624;SDS011;10974;51.034;3.744;2022-08-25T02:02:31;6.60;;;6.00;;
21624;SDS011;10974;51.034;3.744;2022-08-25T02:04:56;7.33;;;6.63;;
21624;SDS011;10974;51.034;3.744;2022-08-25T02:07:22;6.33;;;5.73;;
21624;SDS011;10974;51.034;3.744;2022-08-25T02:09:48;6.80;;;6.20;;
21624;SDS011;10974;51.034;3.744;2022-08-25T02:12:13;7.37;;;6.67;;
21624;SDS011;10974;51.034;3.744;2022-08-25T02:14:39;6.97;;;6.33;;
21624;SDS011;10974;51.034;3.744;2022-08-25T02:17:05;6.53;;;5.77;;
21624;SDS011;10974;51.034;3.744;2022-08-25T02:19:31;7.63;;;6.60;;
21624;SDS011;10974;51.034;3.744;2022-08-25T02:21:57;6.67;;;5.97;;
21624;SDS011;10974;51.034;3.744;2022-08-25T02:24:24;7.60;;;6.80;;
21624;SDS011;10974;51.034;3.744;2022-08-25T02:26:50;7.80;;;6.80;;
21624;SDS011;10974;51.034;3.744;2022-08-25T02:29:15;7.53;;;6.73;;
21624;SDS011;10974;51.034;3.744;2022-08-25T02:31:41;7.83;;;7.03;;
21624;SDS011;10974;51.034;3.744;2022-08-25T02:34:09;6.80;;;6.17;;
21624;SDS011;10974;51.034;3.744;2022-08-25T02:36:36;8.43;;;6.87;;
21624;SDS011;10974;51.034;3.744;2022-08-25T02:39:04;8.17;;;6.67;;
21624;SDS011;10974;51.034;3.744;2022-08-25T02:41:30;8.27;;;7.40;;
21624;SDS011;10974;51.034;3.744;2022-08-25T02:43:58;8.10;;;7.20;;
21624;SDS011;10974;51.034;3.744;2022-08-25T02:46:24;7.73;;;7.03;;
21624;SDS011;10974;51.034;3.744;2022-08-25T02:48:50;7.90;;;7.20;;
21624;SDS011;10974;51.034;3.744;2022-08-25T02:51:17;9.80;;;7.57;;
21624;SDS011;10974;51.034;3.744;2022-08-25T02:53:44;7.40;;;6.70;;
21624;SDS011;10974;51.034;3.744;2022-08-25T02:56:11;7.43;;;6.73;;
21624;SDS011;10974;51.034;3.744;2022-08-25T02:58:38;8.87;;;7.33;;
21624;SDS011;10974;51.034;3.744;2022-08-25T03:01:05;7.50;;;6.80;;
21624;SDS011;10974;51.034;3.744;2022-08-25T03:03:33;7.63;;;6.70;;
21624;SDS011;10974;51.034;3.744;2022-08-25T03:05:59;7.60;;;6.90;;
21624;SDS011;10974;51.034;3.744;2022-08-25T03:08:25;12.83;;;8.30;;
21624;SDS011;10974;51.034;3.744;2022-08-25T03:10:51;9.23;;;8.33;;
21624;SDS011;10974;51.034;3.744;2022-08-25T03:13:17;11.00;;;9.80;;
21624;SDS011;10974;51.034;3.744;2022-08-25T03:15:43;11.63;;;10.43;;
21624;SDS011;10974;51.034;3.744;2022-08-25T03:18:10;10.80;;;9.67;;
21624;SDS011;10974;51.034;3.744;2022-08-25T03:20:36;10.03;;;9.03;;
21624;SDS011;10974;51.034;3.744;2022-08-25T03:23:03;11.33;;;10.23;;
21624;SDS011;10974;51.034;3.744;2022-08-25T03:25:30;10.70;;;9.33;;
21624;SDS011;10974;51.034;3.744;2022-08-25T03:28:14;11.70;;;10.60;;
21624;SDS011;10974;51.034;3.744;2022-08-25T03:30:40;10.40;;;9.40;;
21624;SDS011;10974;51.034;3.744;2022-08-25T03:33:06;11.47;;;10.27;;
21624;SDS011;10974;51.034;3.744;2022-08-25T03:35:32;11.47;;;10.37;;
21624;SDS011;10974;51.034;3.744;2022-08-25T03:37:58;11.70;;;10.53;;
21624;SDS011;10974;51.034;3.744;2022-08-25T03:40:24;16.50;;;11.23;;
21624;SDS011;10974;51.034;3.744;2022-08-25T03:42:51;10.70;;;9.60;;
21624;SDS011;10974;51.034;3.744;2022-08-25T03:45:18;8.37;;;6.53;;
21624;SDS011;10974;51.034;3.744;2022-08-25T03:47:44;6.30;;;5.17;;
21624;SDS011;10974;51.034;3.744;2022-08-25T03:50:12;6.60;;;4.50;;
21624;SDS011;10974;51.034;3.744;2022-08-25T03:52:38;4.10;;;3.70;;
21624;SDS011;10974;51.034;3.744;2022-08-25T03:55:05;3.67;;;3.37;;
21624;SDS011;10974;51.034;3.744;2022-08-25T03:57:32;3.10;;;2.83;;
21624;SDS011;10974;51.034;3.744;2022-08-25T03:59:58;3.97;;;3.30;;
21624;SDS011;10974;51.034;3.744;2022-08-25T04:02:24;3.20;;;2.90;;
21624;SDS011;10974;51.034;3.744;2022-08-25T04:04:49;4.20;;;3.17;;
21624;SDS011;10974;51.034;3.744;2022-08-25T04:07:15;3.93;;;3.53;;
21624;SDS011;10974;51.034;3.744;2022-08-25T04:09:41;5.33;;;3.83;;
21624;SDS011;10974;51.034;3.744;2022-08-25T04:12:07;77.53;;;7.27;;
21624;SDS011;10974;51.034;3.744;2022-08-25T04:14:33;4.27;;;3.87;;
21624;SDS011;10974;51.034;3.744;2022-08-25T04:16:59;9.83;;;4.10;;
21624;SDS011;10974;51.034;3.744;2022-08-25T04:19:25;4.10;;;3.70;;
21624;SDS011;10974;51.034;3.744;2022-08-25T04:21:51;4.13;;;3.83;;
21624;SDS011;10974;51.034;3.744;2022-08-25T04:24:17;6.50;;;4.00;;
21624;SDS011;10974;51.034;3.744;2022-08-25T04:26:45;4.50;;;3.60;;
21624;SDS011;10974;51.034;3.744;2022-08-25T04:29:13;5.20;;;4.63;;
21624;SDS011;10974;51.034;3.744;2022-08-25T04:31:41;4.30;;;3.90;;
21624;SDS011;10974;51.034;3.744;2022-08-25T04:34:11;4.20;;;3.73;;
21624;SDS011;10974;51.034;3.744;2022-08-25T04:36:37;5.40;;;3.90;;
21624;SDS011;10974;51.034;3.744;2022-08-25T04:39:03;3.97;;;3.57;;
21624;SDS011;10974;51.034;3.744;2022-08-25T04:41:29;4.07;;;3.77;;
21624;SDS011;10974;51.034;3.744;2022-08-25T04:43:57;3.70;;;3.40;;
21624;SDS011;10974;51.034;3.744;2022-08-25T04:46:25;3.50;;;3.07;;
21624;SDS011;10974;51.034;3.744;2022-08-25T04:48:53;2.73;;;2.53;;
21624;SDS011;10974;51.034;3.744;2022-08-25T04:51:22;3.87;;;3.37;;
21624;SDS011;10974;51.034;3.744;2022-08-25T04:53:50;3.77;;;3.47;;
21624;SDS011;10974;51.034;3.744;2022-08-25T04:56:17;3.80;;;3.13;;
21624;SDS011;10974;51.034;3.744;2022-08-25T04:58:44;3.27;;;2.97;;
21624;SDS011;10974;51.034;3.744;2022-08-25T05:01:15;3.50;;;3.20;;
21624;SDS011;10974;51.034;3.744;2022-08-25T05:03:43;4.80;;;3.53;;
21624;SDS011;10974;51.034;3.744;2022-08-25T05:06:10;3.70;;;3.37;;
21624;SDS011;10974;51.034;3.744;2022-08-25T05:08:37;6.00;;;3.80;;
21624;SDS011;10974;51.034;3.744;2022-08-25T05:11:04;5.50;;;4.10;;
21624;SDS011;10974;51.034;3.744;2022-08-25T05:13:31;4.10;;;3.30;;
21624;SDS011;10974;51.034;3.744;2022-08-25T05:15:57;5.13;;;3.10;;
21624;SDS011;10974;51.034;3.744;2022-08-25T05:18:25;4.13;;;3.73;;
21624;SDS011;10974;51.034;3.744;2022-08-25T05:20:52;4.73;;;3.70;;
21624;SDS011;10974;51.034;3.744;2022-08-25T05:23:20;3.00;;;2.80;;
21624;SDS011;10974;51.034;3.744;2022-08-25T05:25:47;3.80;;;3.50;;
21624;SDS011;10974;51.034;3.744;2022-08-25T05:28:13;3.33;;;3.03;;
21624;SDS011;10974;51.034;3.744;2022-08-25T05:30:39;3.83;;;3.40;;
21624;SDS011;10974;51.034;3.744;2022-08-25T05:33:07;4.07;;;3.10;;
21624;SDS011;10974;51.034;3.744;2022-08-25T05:35:34;4.10;;;3.00;;
21624;SDS011;10974;51.034;3.744;2022-08-25T05:38:00;3.00;;;2.70;;
21624;SDS011;10974;51.034;3.744;2022-08-25T05:40:28;3.50;;;2.97;;
21624;SDS011;10974;51.034;3.744;2022-08-25T05:42:53;3.43;;;3.13;;
21624;SDS011;10974;51.034;3.744;2022-08-25T05:45:19;3.00;;;2.60;;
21624;SDS011;10974;51.034;3.744;2022-08-25T05:47:45;2.80;;;2.60;;
21624;SDS011;10974;51.034;3.744;2022-08-25T05:50:10;3.60;;;2.53;;
21624;SDS011;10974;51.034;3.744;2022-08-25T05:52:36;3.10;;;2.80;;
21624;SDS011;10974;51.034;3.744;2022-08-25T05:55:03;4.30;;;3.20;;
21624;SDS011;10974;51.034;3.744;2022-08-25T05:57:30;3.60;;;3.30;;
21624;SDS011;10974;51.034;3.744;2022-08-25T05:59:57;3.27;;;2.97;;
21624;SDS011;10974;51.034;3.744;2022-08-25T06:02:22;4.50;;;3.43;;
21624;SDS011;10974;51.034;3.744;2022-08-25T06:05:07;4.13;;;3.73;;
21624;SDS011;10974;51.034;3.744;2022-08-25T06:07:34;3.60;;;3.30;;
21624;SDS011;10974;51.034;3.744;2022-08-25T06:10:01;3.90;;;3.30;;
21624;SDS011;10974;51.034;3.744;2022-08-25T06:12:28;4.27;;;3.50;;
21624;SDS011;10974;51.034;3.744;2022-08-25T06:14:56;5.40;;;4.17;;
21624;SDS011;10974;51.034;3.744;2022-08-25T06:17:22;5.90;;;4.40;;
21624;SDS011;10974;51.034;3.744;2022-08-25T06:19:47;3.90;;;3.50;;
21624;SDS011;10974;51.034;3.744;2022-08-25T06:22:13;5.93;;;3.77;;
21624;SDS011;10974;51.034;3.744;2022-08-25T06:24:39;4.20;;;3.80;;
21624;SDS011;10974;51.034;3.744;2022-08-25T06:27:04;3.90;;;3.53;;
21624;SDS011;10974;51.034;3.744;2022-08-25T06:29:30;5.43;;;3.50;;
21624;SDS011;10974;51.034;3.744;2022-08-25T06:31:56;4.63;;;3.10;;
21624;SDS011;10974;51.034;3.744;2022-08-25T06:34:22;4.23;;;3.43;;
21624;SDS011;10974;51.034;3.744;2022-08-25T06:36:47;3.30;;;3.00;;
21624;SDS011;10974;51.034;3.744;2022-08-25T06:39:14;3.20;;;2.90;;
21624;SDS011;10974;51.034;3.744;2022-08-25T06:41:40;5.63;;;3.27;;
21624;SDS011;10974;51.034;3.744;2022-08-25T06:44:06;4.37;;;2.90;;
21624;SDS011;10974;51.034;3.744;2022-08-25T06:46:32;4.07;;;2.90;;
21624;SDS011;10974;51.034;3.744;2022-08-25T06:48:58;3.13;;;2.60;;
21624;SDS011;10974;51.034;3.744;2022-08-25T06:51:24;2.47;;;2.27;;
21624;SDS011;10974;51.034;3.744;2022-08-25T06:53:51;2.30;;;2.10;;
21624;SDS011;10974;51.034;3.744;2022-08-25T06:56:18;2.90;;;2.27;;
21624;SDS011;10974;51.034;3.744;2022-08-25T06:58:46;4.03;;;2.70;;
21624;SDS011;10974;51.034;3.744;2022-08-25T07:01:30;2.80;;;2.20;;
21624;SDS011;10974;51.034;3.744;2022-08-25T07:03:57;4.03;;;2.80;;
21624;SDS011;10974;51.034;3.744;2022-08-25T07:06:27;2.57;;;2.37;;
21624;SDS011;10974;51.034;3.744;2022-08-25T07:08:55;3.40;;;3.10;;
21624;SDS011;10974;51.034;3.744;2022-08-25T07:11:20;3.10;;;2.70;;
21624;SDS011;10974;51.034;3.744;2022-08-25T07:13:46;3.00;;;2.70;;
21624;SDS011;10974;51.034;3.744;2022-08-25T07:16:13;4.37;;;3.23;;
21624;SDS011;10974;51.034;3.744;2022-08-25T07:18:39;4.57;;;3.17;;
21624;SDS011;10974;51.034;3.744;2022-08-25T07:21:05;6.87;;;3.60;;
21624;SDS011;10974;51.034;3.744;2022-08-25T07:23:31;3.57;;;3.00;;
21624;SDS011;10974;51.034;3.744;2022-08-25T07:26:06;3.63;;;2.87;;
21624;SDS011;10974;51.034;3.744;2022-08-25T07:28:36;4.37;;;3.20;;
21624;SDS011;10974;51.034;3.744;2022-08-25T07:31:02;4.57;;;2.90;;
21624;SDS011;10974;51.034;3.744;2022-08-25T07:33:29;3.13;;;2.60;;
21624;SDS011;10974;51.034;3.744;2022-08-25T07:35:54;2.13;;;1.93;;
21624;SDS011;10974;51.034;3.744;2022-08-25T07:38:20;2.47;;;2.27;;
21624;SDS011;10974;51.034;3.744;2022-08-25T07:40:46;2.53;;;2.10;;
21624;SDS011;10974;51.034;3.744;2022-08-25T07:43:19;2.10;;;2.00;;
21624;SDS011;10974;51.034;3.744;2022-08-25T07:45:47;2.17;;;1.97;;
21624;SDS011;10974;51.034;3.744;2022-08-25T07:48:13;2.53;;;2.30;;
21624;SDS011;10974;51.034;3.744;2022-08-25T07:50:41;2.60;;;2.40;;
21624;SDS011;10974;51.034;3.744;2022-08-25T07:53:09;2.40;;;2.20;;
21624;SDS011;10974;51.034;3.744;2022-08-25T07:55:36;2.63;;;2.30;;
21624;SDS011;10974;51.034;3.744;2022-08-25T07:58:03;3.80;;;2.37;;
21624;SDS011;10974;51.034;3.744;2022-08-25T08:00:31;6.60;;;2.60;;
21624;SDS011;10974;51.034;3.744;2022-08-25T08:02:59;6.27;;;2.43;;
21624;SDS011;10974;51.034;3.744;2022-08-25T08:05:26;6.10;;;2.57;;
21624;SDS011;10974;51.034;3.744;2022-08-25T08:07:53;3.50;;;2.50;;
21624;SDS011;10974;51.034;3.744;2022-08-25T08:10:19;4.30;;;2.47;;
21624;SDS011;10974;51.034;3.744;2022-08-25T08:12:45;3.83;;;2.80;;
21624;SDS011;10974;51.034;3.744;2022-08-25T08:15:11;4.27;;;2.60;;
21624;SDS011;10974;51.034;3.744;2022-08-25T08:17:38;3.13;;;2.47;;
21624;SDS011;10974;51.034;3.744;2022-08-25T08:20:04;4.47;;;3.20;;
21624;SDS011;10974;51.034;3.744;2022-08-25T08:22:35;3.63;;;2.87;;
21624;SDS011;10974;51.034;3.744;2022-08-25T08:25:02;3.70;;;2.60;;
21624;SDS011;10974;51.034;3.744;2022-08-25T08:27:29;3.17;;;2.60;;
21624;SDS011;10974;51.034;3.744;2022-08-25T08:29:54;3.63;;;2.47;;
21624;SDS011;10974;51.034;3.744;2022-08-25T08:32:21;3.73;;;2.30;;
21624;SDS011;10974;51.034;3.744;2022-08-25T08:34:46;3.00;;;2.10;;
21624;SDS011;10974;51.034;3.744;2022-08-25T08:37:13;3.30;;;2.10;;
21624;SDS011;10974;51.034;3.744;2022-08-25T08:39:39;1.97;;;1.73;;
21624;SDS011;10974;51.034;3.744;2022-08-25T08:42:13;1.87;;;1.70;;
21624;SDS011;10974;51.034;3.744;2022-08-25T08:45:03;3.43;;;1.93;;
21624;SDS011;10974;51.034;3.744;2022-08-25T08:58:05;1.87;;;1.77;;
21624;SDS011;10974;51.034;3.744;2022-08-25T09:00:36;2.90;;;1.97;;
21624;SDS011;10974;51.034;3.744;2022-08-25T09:06:19;2.27;;;2.07;;
21624;SDS011;10974;51.034;3.744;2022-08-25T09:08:46;1.67;;;1.57;;
21624;SDS011;10974;51.034;3.744;2022-08-25T09:11:22;1.80;;;1.70;;
21624;SDS011;10974;51.034;3.744;2022-08-25T09:17:20;1.80;;;1.70;;
21624;SDS011;10974;51.034;3.744;2022-08-25T09:20:02;1.60;;;1.50;;
21624;SDS011;10974;51.034;3.744;2022-08-25T09:28:31;2.27;;;1.70;;
21624;SDS011;10974;51.034;3.744;2022-08-25T09:34:01;2.00;;;1.80;;
21624;SDS011;10974;51.034;3.744;2022-08-25T09:36:28;3.27;;;2.37;;
21624;SDS011;10974;51.034;3.744;2022-08-25T09:38:54;3.27;;;2.07;;
21624;SDS011;10974;51.034;3.744;2022-08-25T09:44:17;1.83;;;1.67;;
21624;SDS011;10974;51.034;3.744;2022-08-25T09:46:54;2.03;;;1.60;;
21624;SDS011;10974;51.034;3.744;2022-08-25T09:49:40;2.23;;;1.60;;
21624;SDS011;10974;51.034;3.744;2022-08-25T09:52:20;4.00;;;2.17;;
21624;SDS011;10974;51.034;3.744;2022-08-25T09:54:55;3.27;;;1.87;;
21624;SDS011;10974;51.034;3.744;2022-08-25T09:57:46;3.67;;;2.33;;
21624;SDS011;10974;51.034;3.744;2022-08-25T10:03:03;3.03;;;2.70;;
21624;SDS011;10974;51.034;3.744;2022-08-25T10:08:23;3.20;;;2.30;;
21624;SDS011;10974;51.034;3.744;2022-08-25T10:10:59;3.40;;;2.30;;
21624;SDS011;10974;51.034;3.744;2022-08-25T10:13:39;2.70;;;2.27;;
21624;SDS011;10974;51.034;3.744;2022-08-25T10:16:12;2.50;;;1.80;;
21624;SDS011;10974;51.034;3.744;2022-08-25T10:19:04;2.73;;;2.20;;
21624;SDS011;10974;51.034;3.744;2022-08-25T10:21:31;3.90;;;2.17;;
21624;SDS011;10974;51.034;3.744;2022-08-25T10:23:57;2.50;;;2.00;;
21624;SDS011;10974;51.034;3.744;2022-08-25T10:32:22;5.27;;;2.30;;
21624;SDS011;10974;51.034;3.744;2022-08-25T10:34:57;4.40;;;2.47;;
21624;SDS011;10974;51.034;3.744;2022-08-25T10:37:54;4.30;;;2.20;;
21624;SDS011;10974;51.034;3.744;2022-08-25T10:51:40;4.90;;;2.70;;
21624;SDS011;10974;51.034;3.744;2022-08-25T10:54:19;3.30;;;2.40;;
21624;SDS011;10974;51.034;3.744;2022-08-25T11:04:42;4.53;;;2.10;;
21624;SDS011;10974;51.034;3.744;2022-08-25T11:10:04;6.07;;;2.50;;
21624;SDS011;10974;51.034;3.744;2022-08-25T11:12:36;3.57;;;2.40;;
21624;SDS011;10974;51.034;3.744;2022-08-25T11:15:08;4.20;;;2.70;;
21624;SDS011;10974;51.034;3.744;2022-08-25T11:20:22;5.53;;;3.43;;
21624;SDS011;10974;51.034;3.744;2022-08-25T11:25:31;5.93;;;2.93;;
21624;SDS011;10974;51.034;3.744;2022-08-25T11:28:18;11.07;;;4.70;;
21624;SDS011;10974;51.034;3.744;2022-08-25T11:30:59;7.00;;;4.60;;
21624;SDS011;10974;51.034;3.744;2022-08-25T11:33:27;7.20;;;4.67;;
21624;SDS011;10974;51.034;3.744;2022-08-25T11:36:16;9.23;;;3.20;;
21624;SDS011;10974;51.034;3.744;2022-08-25T11:39:03;7.27;;;3.23;;
21624;SDS011;10974;51.034;3.744;2022-08-25T11:47:11;6.70;;;3.53;;
21624;SDS011;10974;51.034;3.744;2022-08-25T11:50:00;4.83;;;3.20;;
21624;SDS011;10974;51.034;3.744;2022-08-25T11:54:56;8.27;;;2.97;;
21624;SDS011;10974;51.034;3.744;2022-08-25T11:57:29;5.77;;;3.60;;
21624;SDS011;10974;51.034;3.744;2022-08-25T12:02:50;6.83;;;3.10;;
21624;SDS011;10974;51.034;3.744;2022-08-25T12:11:08;7.00;;;4.03;;
21624;SDS011;10974;51.034;3.744;2022-08-25T12:13:40;4.47;;;3.90;;
21624;SDS011;10974;51.034;3.744;2022-08-25T12:16:07;6.20;;;3.90;;
21624;SDS011;10974;51.034;3.744;2022-08-25T12:21:55;7.57;;;4.20;;
21624;SDS011;10974;51.034;3.744;2022-08-25T12:27:10;9.47;;;5.10;;
21624;SDS011;10974;51.034;3.744;2022-08-25T12:35:15;10.57;;;5.60;;
21624;SDS011;10974;51.034;3.744;2022-08-25T12:45:47;10.27;;;6.73;;
21624;SDS011;10974;51.034;3.744;2022-08-25T12:51:26;10.40;;;6.83;;
21624;SDS011;10974;51.034;3.744;2022-08-25T12:54:10;8.80;;;6.70;;
21624;SDS011;10974;51.034;3.744;2022-08-25T12:56:39;9.13;;;7.13;;
21624;SDS011;10974;51.034;3.744;2022-08-25T13:05:44;16.57;;;8.17;;
21624;SDS011;10974;51.034;3.744;2022-08-25T13:07:48;8.00;;;7.13;;
21624;SDS011;10974;51.034;3.744;2022-08-25T13:10:54;12.83;;;6.43;;
21624;SDS011;10974;51.034;3.744;2022-08-25T13:13:46;10.80;;;6.00;;
21624;SDS011;10974;51.034;3.744;2022-08-25T13:16:21;12.63;;;7.30;;
21624;SDS011;10974;51.034;3.744;2022-08-25T13:18:48;11.80;;;6.17;;
21624;SDS011;10974;51.034;3.744;2022-08-25T13:23:55;8.93;;;7.90;;
21624;SDS011;10974;51.034;3.744;2022-08-25T13:26:28;8.13;;;7.10;;
21624;SDS011;10974;51.034;3.744;2022-08-25T13:29:11;10.57;;;8.30;;
21624;SDS011;10974;51.034;3.744;2022-08-25T13:31:54;13.37;;;9.80;;
21624;SDS011;10974;51.034;3.744;2022-08-25T13:34:22;14.13;;;8.57;;
21624;SDS011;10974;51.034;3.744;2022-08-25T13:36:51;7.90;;;7.03;;
21624;SDS011;10974;51.034;3.744;2022-08-25T13:39:36;18.10;;;7.90;;
21624;SDS011;10974;51.034;3.744;2022-08-25T13:42:03;12.20;;;10.27;;
21624;SDS011;10974;51.034;3.744;2022-08-25T13:44:36;10.57;;;9.53;;
21624;SDS011;10974;51.034;3.744;2022-08-25T13:49:37;13.47;;;11.20;;
21624;SDS011;10974;51.034;3.744;2022-08-25T13:52:05;10.50;;;8.57;;
21624;SDS011;10974;51.034;3.744;2022-08-25T13:54:36;10.73;;;9.63;;
21624;SDS011;10974;51.034;3.744;2022-08-25T13:57:20;16.03;;;12.37;;
21624;SDS011;10974;51.034;3.744;2022-08-25T13:59:49;18.70;;;16.07;;
21624;SDS011;10974;51.034;3.744;2022-08-25T14:05:04;28.97;;;19.00;;
21624;SDS011;10974;51.034;3.744;2022-08-25T14:07:30;21.03;;;15.97;;
21624;SDS011;10974;51.034;3.744;2022-08-25T14:20:41;30.07;;;20.03;;
21624;SDS011;10974;51.034;3.744;2022-08-25T14:23:10;23.57;;;18.50;;
21624;SDS011;10974;51.034;3.744;2022-08-25T14:25:38;27.30;;;22.10;;
21624;SDS011;10974;51.034;3.744;2022-08-25T14:28:08;21.93;;;17.93;;
21624;SDS011;10974;51.034;3.744;2022-08-25T14:30:38;26.10;;;16.90;;
21624;SDS011;10974;51.034;3.744;2022-08-25T14:33:07;20.40;;;15.37;;
21624;SDS011;10974;51.034;3.744;2022-08-25T14:35:33;19.17;;;14.70;;
21624;SDS011;10974;51.034;3.744;2022-08-25T14:38:01;16.30;;;13.20;;
21624;SDS011;10974;51.034;3.744;2022-08-25T14:40:32;17.40;;;15.20;;
21624;SDS011;10974;51.034;3.744;2022-08-25T14:42:57;19.47;;;14.97;;
21624;SDS011;10974;51.034;3.744;2022-08-25T14:45:23;17.50;;;13.50;;
21624;SDS011;10974;51.034;3.744;2022-08-25T14:47:49;14.57;;;11.73;;
21624;SDS011;10974;51.034;3.744;2022-08-25T14:50:14;20.53;;;14.23;;
21624;SDS011;10974;51.034;3.744;2022-08-25T14:52:41;20.47;;;14.70;;
21624;SDS011;10974;51.034;3.744;2022-08-25T14:55:08;18.70;;;10.80;;
21624;SDS011;10974;51.034;3.744;2022-08-25T14:57:34;15.03;;;9.97;;
21624;SDS011;10974;51.034;3.744;2022-08-25T15:00:00;14.00;;;8.90;;
21624;SDS011;10974;51.034;3.744;2022-08-25T15:02:29;14.83;;;10.03;;
21624;SDS011;10974;51.034;3.744;2022-08-25T15:04:57;16.90;;;9.50;;
21624;SDS011;10974;51.034;3.744;2022-08-25T15:07:29;15.03;;;10.10;;
21624;SDS011;10974;51.034;3.744;2022-08-25T15:10:15;14.43;;;8.77;;
21624;SDS011;10974;51.034;3.744;2022-08-25T15:12:41;13.50;;;8.60;;
21624;SDS011;10974;51.034;3.744;2022-08-25T15:15:06;11.03;;;7.80;;
21624;SDS011;10974;51.034;3.744;2022-08-25T15:17:33;14.20;;;8.13;;
21624;SDS011;10974;51.034;3.744;2022-08-25T15:20:00;12.77;;;7.90;;
21624;SDS011;10974;51.034;3.744;2022-08-25T15:22:25;11.77;;;7.43;;
21624;SDS011;10974;51.034;3.744;2022-08-25T15:24:51;18.93;;;8.30;;
21624;SDS011;10974;51.034;3.744;2022-08-25T15:27:17;15.00;;;7.77;;
21624;SDS011;10974;51.034;3.744;2022-08-25T15:29:44;17.10;;;7.90;;
21624;SDS011;10974;51.034;3.744;2022-08-25T15:32:10;14.27;;;8.20;;
21624;SDS011;10974;51.034;3.744;2022-08-25T15:34:36;13.07;;;7.63;;
21624;SDS011;10974;51.034;3.744;2022-08-25T15:37:10;18.50;;;8.60;;
21624;SDS011;10974;51.034;3.744;2022-08-25T15:39:38;12.40;;;6.63;;
21624;SDS011;10974;51.034;3.744;2022-08-25T15:42:07;16.03;;;7.87;;
21624;SDS011;10974;51.034;3.744;2022-08-25T15:44:36;14.37;;;8.03;;
21624;SDS011;10974;51.034;3.744;2022-08-25T15:47:05;18.03;;;8.60;;
21624;SDS011;10974;51.034;3.744;2022-08-25T15:49:31;17.50;;;9.67;;
21624;SDS011;10974;51.034;3.744;2022-08-25T15:51:57;17.10;;;10.03;;
21624;SDS011;10974;51.034;3.744;2022-08-25T15:54:24;13.33;;;8.80;;
21624;SDS011;10974;51.034;3.744;2022-08-25T15:56:50;18.83;;;8.50;;
21624;SDS011;10974;51.034;3.744;2022-08-25T15:59:16;14.40;;;6.20;;
21624;SDS011;10974;51.034;3.744;2022-08-25T16:01:42;10.80;;;5.37;;
21624;SDS011;10974;51.034;3.744;2022-08-25T16:04:08;11.33;;;4.90;;
21624;SDS011;10974;51.034;3.744;2022-08-25T16:06:34;3.30;;;3.00;;
21624;SDS011;10974;51.034;3.744;2022-08-25T16:09:00;5.57;;;3.43;;
21624;SDS011;10974;51.034;3.744;2022-08-25T16:11:27;4.10;;;3.63;;
21624;SDS011;10974;51.034;3.744;2022-08-25T16:13:55;4.73;;;3.33;;
21624;SDS011;10974;51.034;3.744;2022-08-25T16:16:22;6.00;;;3.80;;
21624;SDS011;10974;51.034;3.744;2022-08-25T16:18:50;5.10;;;3.03;;
21624;SDS011;10974;51.034;3.744;2022-08-25T16:21:18;3.90;;;3.60;;
21624;SDS011;10974;51.034;3.744;2022-08-25T16:23:48;3.67;;;3.27;;
21624;SDS011;10974;51.034;3.744;2022-08-25T16:26:14;3.43;;;3.20;;
21624;SDS011;10974;51.034;3.744;2022-08-25T16:28:40;4.30;;;3.00;;
21624;SDS011;10974;51.034;3.744;2022-08-25T16:31:08;3.63;;;3.33;;
21624;SDS011;10974;51.034;3.744;2022-08-25T16:33:34;3.40;;;3.10;;
21624;SDS011;10974;51.034;3.744;2022-08-25T16:36:06;3.40;;;3.10;;
21624;SDS011;10974;51.034;3.744;2022-08-25T16:38:37;3.43;;;3.13;;
21624;SDS011;10974;51.034;3.744;2022-08-25T16:41:07;3.37;;;3.07;;
21624;SDS011;10974;51.034;3.744;2022-08-25T16:43:34;3.73;;;3.07;;
21624;SDS011;10974;51.034;3.744;2022-08-25T16:46:02;4.43;;;3.43;;
21624;SDS011;10974;51.034;3.744;2022-08-25T16:48:30;3.63;;;3.30;;
21624;SDS011;10974;51.034;3.744;2022-08-25T16:50:56;3.77;;;3.47;;
21624;SDS011;10974;51.034;3.744;2022-08-25T16:53:22;3.30;;;3.00;;
21624;SDS011;10974;51.034;3.744;2022-08-25T16:56:07;3.43;;;3.10;;
21624;SDS011;10974;51.034;3.744;2022-08-25T16:58:33;3.80;;;3.47;;
21624;SDS011;10974;51.034;3.744;2022-08-25T17:01:09;3.80;;;3.50;;
21624;SDS011;10974;51.034;3.744;2022-08-25T17:03:39;3.67;;;3.10;;
21624;SDS011;10974;51.034;3.744;2022-08-25T17:06:06;3.20;;;2.90;;
21624;SDS011;10974;51.034;3.744;2022-08-25T17:08:33;3.50;;;3.20;;